Strona główna
METAR-TAF:

METAR-TAF

Lotnisko :

Port lotniczy Abidżan

Abidżan, Wybrzeże Kości Słoniowej

Szerokość geograficzna: 05-15N, Długość geograficzna: 003-56W, wysokość: 7 m

Aktualna obserwacja pogody

Raport powstał 32 minut temu, godzina 08:00 UTC
Wiatr 4 kt od zachód
Temperatura 28°C
Wilgotność 89%
Ciśnienie 1013 hPa
Widzialność: 8000 m
Mało chmury na wysokości 1200 ft

METAR: DIAP 040800Z 28004KT 8000 FEW012 28/26 Q1013 NOSIG

czas: 08:32 (08:32 UTC)

Prognoza

Raport powstał 3 godziny i 32 minut temu, godzina 05:00 UTC
Prognoza ważna od 04 godzina 06 UTC do 05 godzina 12 UTC
Wiatr 3 kt od zachodnio-południowy zachód
Widzialność 10 km lub więcej
Rozproszone chmury na wysokości 1200 ft
Prawdopodobieństwo 30% :
Przejściowo
od 04 godzina 15 UTC do 04 godzina 20 UTC
Przerywane chmury na wysokości 1200 ft
Mało chmury na wysokości 2000 ft, Cumulonimbus.
burza

TAF: DIAP 040500Z 0406/0512 24003KT 9999 SCT012 PROB30 TEMPO 0415/0420 TS BKN012 FEW020CB

Obserwacja i prognoza pogody dla ponad 4000 lotnisk (raport METAR i TAF).

Dostępne stacje oznaczono żółtymi i czerwonymi punktami na mapie.

Najedź kursorem aby zobaczyć nazwę stacji.

Kliknij aby zobaczyć obserwacje i prognozy pogody.

Aby zmienić mapę: kliknij na zielony przycisk z czarnym krzyżykiem, aby powiększyć; na zielony przycisk z myślnikiem, aby pomniejszyć; na zielone strzałki, aby przejść do map sąsiednich.


METAR-TAF: